sensor_id;sensor_type;location;lat;lon;timestamp;P1;durP1;ratioP1;P2;durP2;ratioP2
5833;SDS011;2943;48.012;10.968;2022-10-31T00:02:03;19.93;;;5.77;;
5833;SDS011;2943;48.012;10.968;2022-10-31T00:04:30;13.80;;;6.17;;
5833;SDS011;2943;48.012;10.968;2022-10-31T00:06:57;13.27;;;5.33;;
5833;SDS011;2943;48.012;10.968;2022-10-31T00:09:24;9.70;;;5.30;;
5833;SDS011;2943;48.012;10.968;2022-10-31T00:11:51;10.87;;;5.13;;
5833;SDS011;2943;48.012;10.968;2022-10-31T00:14:18;17.07;;;5.97;;
5833;SDS011;2943;48.012;10.968;2022-10-31T00:16:44;10.50;;;5.80;;
5833;SDS011;2943;48.012;10.968;2022-10-31T00:19:13;13.70;;;6.03;;
5833;SDS011;2943;48.012;10.968;2022-10-31T00:21:40;15.03;;;5.40;;
5833;SDS011;2943;48.012;10.968;2022-10-31T00:24:07;23.10;;;7.47;;
5833;SDS011;2943;48.012;10.968;2022-10-31T00:26:34;12.60;;;6.50;;
5833;SDS011;2943;48.012;10.968;2022-10-31T00:29:01;15.63;;;6.43;;
5833;SDS011;2943;48.012;10.968;2022-10-31T00:31:28;20.63;;;7.10;;
5833;SDS011;2943;48.012;10.968;2022-10-31T00:33:55;14.73;;;6.40;;
5833;SDS011;2943;48.012;10.968;2022-10-31T00:36:24;16.70;;;6.70;;
5833;SDS011;2943;48.012;10.968;2022-10-31T00:38:51;14.60;;;7.17;;
5833;SDS011;2943;48.012;10.968;2022-10-31T00:41:18;15.10;;;7.80;;
5833;SDS011;2943;48.012;10.968;2022-10-31T00:43:45;28.50;;;6.97;;
5833;SDS011;2943;48.012;10.968;2022-10-31T00:46:12;13.93;;;6.73;;
5833;SDS011;2943;48.012;10.968;2022-10-31T00:48:39;9.73;;;6.17;;
5833;SDS011;2943;48.012;10.968;2022-10-31T00:51:07;19.67;;;7.27;;
5833;SDS011;2943;48.012;10.968;2022-10-31T00:53:36;13.67;;;6.30;;
5833;SDS011;2943;48.012;10.968;2022-10-31T00:56:03;15.83;;;6.30;;
5833;SDS011;2943;48.012;10.968;2022-10-31T00:58:30;9.90;;;6.53;;
5833;SDS011;2943;48.012;10.968;2022-10-31T01:00:57;17.53;;;7.03;;
5833;SDS011;2943;48.012;10.968;2022-10-31T01:03:25;13.40;;;6.67;;
5833;SDS011;2943;48.012;10.968;2022-10-31T01:05:57;13.30;;;6.00;;
5833;SDS011;2943;48.012;10.968;2022-10-31T01:08:25;12.93;;;6.23;;
5833;SDS011;2943;48.012;10.968;2022-10-31T01:11:00;14.23;;;6.93;;
5833;SDS011;2943;48.012;10.968;2022-10-31T01:13:29;14.47;;;6.37;;
5833;SDS011;2943;48.012;10.968;2022-10-31T01:15:56;17.27;;;6.93;;
5833;SDS011;2943;48.012;10.968;2022-10-31T01:18:24;9.20;;;6.10;;
5833;SDS011;2943;48.012;10.968;2022-10-31T01:20:58;10.10;;;5.83;;
5833;SDS011;2943;48.012;10.968;2022-10-31T01:23:26;13.70;;;6.30;;
5833;SDS011;2943;48.012;10.968;2022-10-31T01:26:02;16.30;;;5.87;;
5833;SDS011;2943;48.012;10.968;2022-10-31T01:28:32;12.67;;;6.80;;
5833;SDS011;2943;48.012;10.968;2022-10-31T01:31:00;12.63;;;6.03;;
5833;SDS011;2943;48.012;10.968;2022-10-31T01:33:27;10.23;;;5.90;;
5833;SDS011;2943;48.012;10.968;2022-10-31T01:35:54;9.40;;;6.67;;
5833;SDS011;2943;48.012;10.968;2022-10-31T01:38:21;23.43;;;7.90;;
5833;SDS011;2943;48.012;10.968;2022-10-31T01:40:48;15.17;;;7.10;;
5833;SDS011;2943;48.012;10.968;2022-10-31T01:43:17;14.77;;;6.63;;
5833;SDS011;2943;48.012;10.968;2022-10-31T01:45:44;11.00;;;5.90;;
5833;SDS011;2943;48.012;10.968;2022-10-31T01:48:16;9.70;;;5.53;;
5833;SDS011;2943;48.012;10.968;2022-10-31T01:50:46;14.30;;;6.50;;
5833;SDS011;2943;48.012;10.968;2022-10-31T01:53:16;11.20;;;5.50;;
5833;SDS011;2943;48.012;10.968;2022-10-31T01:55:44;12.20;;;5.60;;
5833;SDS011;2943;48.012;10.968;2022-10-31T01:58:13;14.53;;;6.43;;
5833;SDS011;2943;48.012;10.968;2022-10-31T02:00:46;10.77;;;5.90;;
5833;SDS011;2943;48.012;10.968;2022-10-31T02:03:17;11.07;;;6.30;;
5833;SDS011;2943;48.012;10.968;2022-10-31T02:05:46;11.33;;;6.47;;
5833;SDS011;2943;48.012;10.968;2022-10-31T02:08:15;9.73;;;5.90;;
5833;SDS011;2943;48.012;10.968;2022-10-31T02:10:47;10.13;;;6.00;;
5833;SDS011;2943;48.012;10.968;2022-10-31T02:13:17;17.13;;;6.67;;
5833;SDS011;2943;48.012;10.968;2022-10-31T02:15:45;10.40;;;5.27;;
5833;SDS011;2943;48.012;10.968;2022-10-31T02:18:15;10.53;;;6.50;;
5833;SDS011;2943;48.012;10.968;2022-10-31T02:20:46;12.80;;;6.70;;
5833;SDS011;2943;48.012;10.968;2022-10-31T02:23:33;19.43;;;6.20;;
5833;SDS011;2943;48.012;10.968;2022-10-31T02:26:27;11.00;;;6.57;;
5833;SDS011;2943;48.012;10.968;2022-10-31T02:32:21;16.80;;;4.80;;
5833;SDS011;2943;48.012;10.968;2022-10-31T02:34:55;13.13;;;6.33;;
5833;SDS011;2943;48.012;10.968;2022-10-31T02:37:26;9.10;;;5.40;;
5833;SDS011;2943;48.012;10.968;2022-10-31T02:40:04;12.67;;;6.20;;
5833;SDS011;2943;48.012;10.968;2022-10-31T02:42:38;13.37;;;5.93;;
5833;SDS011;2943;48.012;10.968;2022-10-31T02:45:14;9.53;;;5.33;;
5833;SDS011;2943;48.012;10.968;2022-10-31T02:47:50;17.40;;;5.87;;
5833;SDS011;2943;48.012;10.968;2022-10-31T02:50:23;12.93;;;5.30;;
5833;SDS011;2943;48.012;10.968;2022-10-31T02:52:54;13.47;;;5.73;;
5833;SDS011;2943;48.012;10.968;2022-10-31T02:58:20;10.93;;;5.90;;
5833;SDS011;2943;48.012;10.968;2022-10-31T03:00:51;10.73;;;5.83;;
5833;SDS011;2943;48.012;10.968;2022-10-31T03:03:34;7.67;;;5.00;;
5833;SDS011;2943;48.012;10.968;2022-10-31T03:06:08;10.53;;;5.77;;
5833;SDS011;2943;48.012;10.968;2022-10-31T03:08:41;15.30;;;6.00;;
5833;SDS011;2943;48.012;10.968;2022-10-31T03:11:16;8.47;;;5.90;;
5833;SDS011;2943;48.012;10.968;2022-10-31T03:13:49;16.43;;;6.00;;
5833;SDS011;2943;48.012;10.968;2022-10-31T03:16:23;16.20;;;5.87;;
5833;SDS011;2943;48.012;10.968;2022-10-31T03:18:57;12.87;;;6.57;;
5833;SDS011;2943;48.012;10.968;2022-10-31T03:21:29;11.47;;;5.90;;
5833;SDS011;2943;48.012;10.968;2022-10-31T03:24:02;12.87;;;5.60;;
5833;SDS011;2943;48.012;10.968;2022-10-31T03:26:32;11.77;;;6.10;;
5833;SDS011;2943;48.012;10.968;2022-10-31T03:29:02;13.83;;;5.17;;
5833;SDS011;2943;48.012;10.968;2022-10-31T03:31:32;11.93;;;5.30;;
5833;SDS011;2943;48.012;10.968;2022-10-31T03:34:04;11.87;;;5.70;;
5833;SDS011;2943;48.012;10.968;2022-10-31T03:36:33;15.60;;;5.93;;
5833;SDS011;2943;48.012;10.968;2022-10-31T03:39:04;11.17;;;5.83;;
5833;SDS011;2943;48.012;10.968;2022-10-31T03:41:44;10.97;;;6.27;;
5833;SDS011;2943;48.012;10.968;2022-10-31T03:44:16;7.90;;;5.30;;
5833;SDS011;2943;48.012;10.968;2022-10-31T03:46:47;7.30;;;5.20;;
5833;SDS011;2943;48.012;10.968;2022-10-31T03:49:15;13.40;;;5.20;;
5833;SDS011;2943;48.012;10.968;2022-10-31T03:51:43;13.80;;;6.43;;
5833;SDS011;2943;48.012;10.968;2022-10-31T03:54:16;16.57;;;5.83;;
5833;SDS011;2943;48.012;10.968;2022-10-31T03:56:50;10.50;;;4.60;;
5833;SDS011;2943;48.012;10.968;2022-10-31T03:59:21;9.50;;;5.73;;
5833;SDS011;2943;48.012;10.968;2022-10-31T04:01:53;12.93;;;5.83;;
5833;SDS011;2943;48.012;10.968;2022-10-31T04:04:25;9.60;;;6.17;;
5833;SDS011;2943;48.012;10.968;2022-10-31T04:06:53;12.80;;;5.83;;
5833;SDS011;2943;48.012;10.968;2022-10-31T04:09:22;9.87;;;5.90;;
5833;SDS011;2943;48.012;10.968;2022-10-31T04:11:53;16.07;;;5.90;;
5833;SDS011;2943;48.012;10.968;2022-10-31T04:14:22;12.27;;;5.50;;
5833;SDS011;2943;48.012;10.968;2022-10-31T04:16:51;11.00;;;5.40;;
5833;SDS011;2943;48.012;10.968;2022-10-31T04:19:18;9.23;;;5.10;;
5833;SDS011;2943;48.012;10.968;2022-10-31T04:21:46;11.73;;;5.70;;
5833;SDS011;2943;48.012;10.968;2022-10-31T04:24:13;17.43;;;5.90;;
5833;SDS011;2943;48.012;10.968;2022-10-31T04:26:40;12.70;;;5.90;;
5833;SDS011;2943;48.012;10.968;2022-10-31T04:29:07;10.00;;;5.90;;
5833;SDS011;2943;48.012;10.968;2022-10-31T04:31:34;13.73;;;5.90;;
5833;SDS011;2943;48.012;10.968;2022-10-31T04:34:01;11.20;;;5.80;;
5833;SDS011;2943;48.012;10.968;2022-10-31T04:36:28;9.70;;;5.00;;
5833;SDS011;2943;48.012;10.968;2022-10-31T04:38:56;12.17;;;5.67;;
5833;SDS011;2943;48.012;10.968;2022-10-31T04:41:23;9.43;;;5.33;;
5833;SDS011;2943;48.012;10.968;2022-10-31T04:43:50;9.70;;;6.23;;
5833;SDS011;2943;48.012;10.968;2022-10-31T04:46:17;13.93;;;5.43;;
5833;SDS011;2943;48.012;10.968;2022-10-31T04:48:44;12.03;;;5.50;;
5833;SDS011;2943;48.012;10.968;2022-10-31T04:51:11;21.00;;;5.77;;
5833;SDS011;2943;48.012;10.968;2022-10-31T04:53:38;15.47;;;6.37;;
5833;SDS011;2943;48.012;10.968;2022-10-31T04:56:06;10.80;;;6.07;;
5833;SDS011;2943;48.012;10.968;2022-10-31T04:58:33;12.20;;;5.73;;
5833;SDS011;2943;48.012;10.968;2022-10-31T05:01:00;18.20;;;5.73;;
5833;SDS011;2943;48.012;10.968;2022-10-31T05:03:27;8.73;;;5.53;;
5833;SDS011;2943;48.012;10.968;2022-10-31T05:05:54;7.30;;;4.80;;
5833;SDS011;2943;48.012;10.968;2022-10-31T05:08:21;9.93;;;4.93;;
5833;SDS011;2943;48.012;10.968;2022-10-31T05:10:48;11.43;;;5.20;;
5833;SDS011;2943;48.012;10.968;2022-10-31T05:13:16;11.40;;;5.00;;
5833;SDS011;2943;48.012;10.968;2022-10-31T05:15:43;11.60;;;5.27;;
5833;SDS011;2943;48.012;10.968;2022-10-31T05:18:10;9.80;;;4.57;;
5833;SDS011;2943;48.012;10.968;2022-10-31T05:20:37;9.20;;;5.07;;
5833;SDS011;2943;48.012;10.968;2022-10-31T05:23:04;12.40;;;5.30;;
5833;SDS011;2943;48.012;10.968;2022-10-31T05:25:31;12.30;;;5.20;;
5833;SDS011;2943;48.012;10.968;2022-10-31T05:27:58;8.33;;;5.00;;
5833;SDS011;2943;48.012;10.968;2022-10-31T05:30:27;11.80;;;4.80;;
5833;SDS011;2943;48.012;10.968;2022-10-31T05:32:56;12.97;;;4.70;;
5833;SDS011;2943;48.012;10.968;2022-10-31T05:35:24;6.87;;;4.33;;
5833;SDS011;2943;48.012;10.968;2022-10-31T05:37:52;9.17;;;4.60;;
5833;SDS011;2943;48.012;10.968;2022-10-31T05:40:19;14.90;;;5.20;;
5833;SDS011;2943;48.012;10.968;2022-10-31T05:42:47;7.50;;;4.57;;
5833;SDS011;2943;48.012;10.968;2022-10-31T05:45:17;11.43;;;4.77;;
5833;SDS011;2943;48.012;10.968;2022-10-31T05:47:51;7.53;;;4.80;;
5833;SDS011;2943;48.012;10.968;2022-10-31T05:50:18;15.77;;;4.47;;
5833;SDS011;2943;48.012;10.968;2022-10-31T05:52:45;10.07;;;4.93;;
5833;SDS011;2943;48.012;10.968;2022-10-31T05:55:12;12.50;;;4.93;;
5833;SDS011;2943;48.012;10.968;2022-10-31T05:57:39;12.10;;;4.40;;
5833;SDS011;2943;48.012;10.968;2022-10-31T06:00:07;9.50;;;4.90;;
5833;SDS011;2943;48.012;10.968;2022-10-31T06:02:35;15.70;;;4.90;;
5833;SDS011;2943;48.012;10.968;2022-10-31T06:05:03;8.03;;;4.53;;
5833;SDS011;2943;48.012;10.968;2022-10-31T06:07:33;10.70;;;5.63;;
5833;SDS011;2943;48.012;10.968;2022-10-31T06:10:01;9.17;;;4.67;;
5833;SDS011;2943;48.012;10.968;2022-10-31T06:12:29;16.93;;;4.90;;
5833;SDS011;2943;48.012;10.968;2022-10-31T06:14:56;18.13;;;5.07;;
5833;SDS011;2943;48.012;10.968;2022-10-31T06:17:23;11.30;;;4.80;;
5833;SDS011;2943;48.012;10.968;2022-10-31T06:19:50;9.00;;;4.50;;
5833;SDS011;2943;48.012;10.968;2022-10-31T06:22:19;5.77;;;4.40;;
5833;SDS011;2943;48.012;10.968;2022-10-31T06:24:46;14.63;;;5.10;;
5833;SDS011;2943;48.012;10.968;2022-10-31T06:27:13;10.93;;;5.10;;
5833;SDS011;2943;48.012;10.968;2022-10-31T06:29:40;15.67;;;6.10;;
5833;SDS011;2943;48.012;10.968;2022-10-31T06:32:09;9.10;;;5.33;;
5833;SDS011;2943;48.012;10.968;2022-10-31T06:34:36;6.80;;;4.73;;
5833;SDS011;2943;48.012;10.968;2022-10-31T06:37:04;13.97;;;5.03;;
5833;SDS011;2943;48.012;10.968;2022-10-31T06:39:33;12.63;;;4.60;;
5833;SDS011;2943;48.012;10.968;2022-10-31T06:42:00;8.33;;;5.60;;
5833;SDS011;2943;48.012;10.968;2022-10-31T06:44:28;10.33;;;6.00;;
5833;SDS011;2943;48.012;10.968;2022-10-31T06:46:55;11.73;;;6.03;;
5833;SDS011;2943;48.012;10.968;2022-10-31T06:49:22;13.70;;;6.33;;
5833;SDS011;2943;48.012;10.968;2022-10-31T06:51:50;7.93;;;4.97;;
5833;SDS011;2943;48.012;10.968;2022-10-31T06:54:17;13.23;;;5.10;;
5833;SDS011;2943;48.012;10.968;2022-10-31T06:56:46;10.47;;;5.20;;
5833;SDS011;2943;48.012;10.968;2022-10-31T06:59:14;9.80;;;4.90;;
5833;SDS011;2943;48.012;10.968;2022-10-31T07:01:41;12.13;;;5.20;;
5833;SDS011;2943;48.012;10.968;2022-10-31T07:04:08;8.43;;;5.10;;
5833;SDS011;2943;48.012;10.968;2022-10-31T07:06:35;10.27;;;5.57;;
5833;SDS011;2943;48.012;10.968;2022-10-31T07:09:03;16.23;;;6.00;;
5833;SDS011;2943;48.012;10.968;2022-10-31T07:11:29;15.73;;;5.47;;
5833;SDS011;2943;48.012;10.968;2022-10-31T07:13:58;13.57;;;5.50;;
5833;SDS011;2943;48.012;10.968;2022-10-31T07:16:24;16.13;;;5.20;;
5833;SDS011;2943;48.012;10.968;2022-10-31T07:18:51;13.23;;;5.90;;
5833;SDS011;2943;48.012;10.968;2022-10-31T07:21:18;20.30;;;5.83;;
5833;SDS011;2943;48.012;10.968;2022-10-31T07:23:47;17.03;;;5.00;;
5833;SDS011;2943;48.012;10.968;2022-10-31T07:26:14;19.73;;;6.23;;
5833;SDS011;2943;48.012;10.968;2022-10-31T07:28:41;13.80;;;6.53;;
5833;SDS011;2943;48.012;10.968;2022-10-31T07:31:09;13.83;;;5.70;;
5833;SDS011;2943;48.012;10.968;2022-10-31T07:33:36;10.50;;;5.80;;
5833;SDS011;2943;48.012;10.968;2022-10-31T07:36:03;14.53;;;5.47;;
5833;SDS011;2943;48.012;10.968;2022-10-31T07:38:30;8.33;;;5.10;;
5833;SDS011;2943;48.012;10.968;2022-10-31T07:40:57;14.80;;;5.00;;
5833;SDS011;2943;48.012;10.968;2022-10-31T07:43:24;18.17;;;6.33;;
5833;SDS011;2943;48.012;10.968;2022-10-31T07:45:51;27.37;;;6.90;;
5833;SDS011;2943;48.012;10.968;2022-10-31T07:48:20;15.73;;;6.87;;
5833;SDS011;2943;48.012;10.968;2022-10-31T07:50:47;18.80;;;9.17;;
5833;SDS011;2943;48.012;10.968;2022-10-31T07:53:14;20.40;;;6.57;;
5833;SDS011;2943;48.012;10.968;2022-10-31T07:55:41;19.73;;;7.20;;
5833;SDS011;2943;48.012;10.968;2022-10-31T07:58:09;16.13;;;7.17;;
5833;SDS011;2943;48.012;10.968;2022-10-31T08:00:38;12.27;;;6.50;;
5833;SDS011;2943;48.012;10.968;2022-10-31T08:03:06;17.47;;;5.50;;
5833;SDS011;2943;48.012;10.968;2022-10-31T08:05:36;12.17;;;5.30;;
5833;SDS011;2943;48.012;10.968;2022-10-31T08:08:03;16.73;;;4.40;;
5833;SDS011;2943;48.012;10.968;2022-10-31T08:10:31;9.10;;;4.10;;
5833;SDS011;2943;48.012;10.968;2022-10-31T08:12:59;12.33;;;4.07;;
5833;SDS011;2943;48.012;10.968;2022-10-31T08:15:27;7.83;;;4.07;;
5833;SDS011;2943;48.012;10.968;2022-10-31T08:17:54;6.43;;;3.77;;
5833;SDS011;2943;48.012;10.968;2022-10-31T08:20:21;11.00;;;3.83;;
5833;SDS011;2943;48.012;10.968;2022-10-31T08:22:56;11.40;;;3.97;;
5833;SDS011;2943;48.012;10.968;2022-10-31T08:25:24;14.60;;;4.63;;
5833;SDS011;2943;48.012;10.968;2022-10-31T08:27:52;15.10;;;4.30;;
5833;SDS011;2943;48.012;10.968;2022-10-31T08:30:21;5.47;;;3.60;;
5833;SDS011;2943;48.012;10.968;2022-10-31T08:32:56;8.10;;;4.10;;
5833;SDS011;2943;48.012;10.968;2022-10-31T08:35:24;11.60;;;4.47;;
5833;SDS011;2943;48.012;10.968;2022-10-31T08:37:51;16.87;;;4.07;;
5833;SDS011;2943;48.012;10.968;2022-10-31T08:40:21;17.07;;;4.40;;
5833;SDS011;2943;48.012;10.968;2022-10-31T08:42:54;8.90;;;4.23;;
5833;SDS011;2943;48.012;10.968;2022-10-31T08:45:22;9.70;;;4.03;;
5833;SDS011;2943;48.012;10.968;2022-10-31T08:47:49;10.50;;;4.33;;
5833;SDS011;2943;48.012;10.968;2022-10-31T08:50:16;22.10;;;5.37;;
5833;SDS011;2943;48.012;10.968;2022-10-31T08:52:43;15.53;;;5.27;;
5833;SDS011;2943;48.012;10.968;2022-10-31T08:55:10;17.23;;;5.20;;
5833;SDS011;2943;48.012;10.968;2022-10-31T08:57:38;18.03;;;5.17;;
5833;SDS011;2943;48.012;10.968;2022-10-31T09:00:06;13.07;;;4.90;;
5833;SDS011;2943;48.012;10.968;2022-10-31T09:02:33;9.83;;;4.40;;
5833;SDS011;2943;48.012;10.968;2022-10-31T09:05:02;20.10;;;4.93;;
5833;SDS011;2943;48.012;10.968;2022-10-31T09:07:29;8.33;;;3.80;;
5833;SDS011;2943;48.012;10.968;2022-10-31T09:09:55;15.07;;;4.03;;
5833;SDS011;2943;48.012;10.968;2022-10-31T09:12:22;8.03;;;3.63;;
5833;SDS011;2943;48.012;10.968;2022-10-31T09:14:51;6.43;;;4.50;;
5833;SDS011;2943;48.012;10.968;2022-10-31T09:17:18;10.00;;;3.10;;
5833;SDS011;2943;48.012;10.968;2022-10-31T09:19:45;8.43;;;3.20;;
5833;SDS011;2943;48.012;10.968;2022-10-31T09:22:11;23.43;;;4.30;;
5833;SDS011;2943;48.012;10.968;2022-10-31T09:24:38;10.60;;;3.40;;
5833;SDS011;2943;48.012;10.968;2022-10-31T09:27:05;11.23;;;3.80;;
5833;SDS011;2943;48.012;10.968;2022-10-31T09:29:33;12.50;;;4.07;;
5833;SDS011;2943;48.012;10.968;2022-10-31T09:32:01;13.07;;;3.43;;
5833;SDS011;2943;48.012;10.968;2022-10-31T09:34:28;15.90;;;3.97;;
5833;SDS011;2943;48.012;10.968;2022-10-31T09:36:55;12.43;;;3.03;;
5833;SDS011;2943;48.012;10.968;2022-10-31T09:39:22;9.60;;;3.43;;
5833;SDS011;2943;48.012;10.968;2022-10-31T09:41:56;7.33;;;3.23;;
5833;SDS011;2943;48.012;10.968;2022-10-31T09:44:45;7.33;;;3.60;;
5833;SDS011;2943;48.012;10.968;2022-10-31T09:47:21;7.07;;;3.13;;
5833;SDS011;2943;48.012;10.968;2022-10-31T09:49:57;7.83;;;3.20;;
5833;SDS011;2943;48.012;10.968;2022-10-31T09:52:33;8.63;;;3.67;;
5833;SDS011;2943;48.012;10.968;2022-10-31T09:55:02;9.50;;;3.30;;
5833;SDS011;2943;48.012;10.968;2022-10-31T09:57:32;15.00;;;3.60;;
5833;SDS011;2943;48.012;10.968;2022-10-31T10:00:03;9.27;;;3.70;;
5833;SDS011;2943;48.012;10.968;2022-10-31T10:02:32;11.10;;;3.60;;
5833;SDS011;2943;48.012;10.968;2022-10-31T10:05:04;10.77;;;3.80;;
5833;SDS011;2943;48.012;10.968;2022-10-31T10:07:35;11.13;;;4.17;;
5833;SDS011;2943;48.012;10.968;2022-10-31T10:10:13;8.43;;;4.00;;
5833;SDS011;2943;48.012;10.968;2022-10-31T10:12:57;15.00;;;4.43;;
5833;SDS011;2943;48.012;10.968;2022-10-31T10:15:51;20.20;;;4.20;;
5833;SDS011;2943;48.012;10.968;2022-10-31T10:18:31;11.07;;;3.67;;
5833;SDS011;2943;48.012;10.968;2022-10-31T10:21:11;12.30;;;5.23;;
5833;SDS011;2943;48.012;10.968;2022-10-31T10:23:51;11.70;;;4.50;;
5833;SDS011;2943;48.012;10.968;2022-10-31T10:26:28;15.30;;;4.50;;
5833;SDS011;2943;48.012;10.968;2022-10-31T10:29:02;10.87;;;5.03;;
5833;SDS011;2943;48.012;10.968;2022-10-31T10:31:42;11.37;;;4.70;;
5833;SDS011;2943;48.012;10.968;2022-10-31T10:34:16;9.70;;;4.47;;
5833;SDS011;2943;48.012;10.968;2022-10-31T10:36:48;17.10;;;4.93;;
5833;SDS011;2943;48.012;10.968;2022-10-31T10:39:20;13.20;;;6.13;;
5833;SDS011;2943;48.012;10.968;2022-10-31T10:41:50;17.47;;;7.90;;
5833;SDS011;2943;48.012;10.968;2022-10-31T10:44:35;28.87;;;8.10;;
5833;SDS011;2943;48.012;10.968;2022-10-31T10:47:22;23.00;;;7.53;;
5833;SDS011;2943;48.012;10.968;2022-10-31T10:50:08;19.13;;;7.93;;
5833;SDS011;2943;48.012;10.968;2022-10-31T10:52:41;8.83;;;4.83;;
5833;SDS011;2943;48.012;10.968;2022-10-31T10:55:23;19.87;;;4.40;;
5833;SDS011;2943;48.012;10.968;2022-10-31T10:58:00;16.20;;;3.67;;
5833;SDS011;2943;48.012;10.968;2022-10-31T11:00:29;8.70;;;4.03;;
5833;SDS011;2943;48.012;10.968;2022-10-31T11:02:58;11.90;;;4.17;;
5833;SDS011;2943;48.012;10.968;2022-10-31T11:05:28;11.27;;;4.20;;
5833;SDS011;2943;48.012;10.968;2022-10-31T11:08:00;12.33;;;4.50;;
5833;SDS011;2943;48.012;10.968;2022-10-31T11:10:26;18.73;;;4.70;;
5833;SDS011;2943;48.012;10.968;2022-10-31T11:12:58;12.00;;;4.27;;
5833;SDS011;2943;48.012;10.968;2022-10-31T11:15:35;10.03;;;4.13;;
5833;SDS011;2943;48.012;10.968;2022-10-31T11:18:05;12.03;;;3.70;;
5833;SDS011;2943;48.012;10.968;2022-10-31T11:20:50;12.93;;;4.00;;
5833;SDS011;2943;48.012;10.968;2022-10-31T11:23:19;7.13;;;3.53;;
5833;SDS011;2943;48.012;10.968;2022-10-31T11:25:49;12.73;;;4.30;;
5833;SDS011;2943;48.012;10.968;2022-10-31T11:28:20;7.57;;;3.73;;
5833;SDS011;2943;48.012;10.968;2022-10-31T11:30:48;17.20;;;5.47;;
5833;SDS011;2943;48.012;10.968;2022-10-31T11:33:19;12.23;;;5.10;;
5833;SDS011;2943;48.012;10.968;2022-10-31T11:35:50;7.93;;;3.80;;
5833;SDS011;2943;48.012;10.968;2022-10-31T11:38:20;10.77;;;4.20;;
5833;SDS011;2943;48.012;10.968;2022-10-31T11:40:56;8.43;;;4.00;;
5833;SDS011;2943;48.012;10.968;2022-10-31T11:43:33;17.63;;;5.10;;
5833;SDS011;2943;48.012;10.968;2022-10-31T11:46:07;15.93;;;4.90;;
5833;SDS011;2943;48.012;10.968;2022-10-31T11:48:35;17.00;;;4.73;;
5833;SDS011;2943;48.012;10.968;2022-10-31T11:51:04;11.30;;;3.97;;
5833;SDS011;2943;48.012;10.968;2022-10-31T11:53:32;18.20;;;5.70;;
5833;SDS011;2943;48.012;10.968;2022-10-31T11:56:04;21.03;;;7.90;;
5833;SDS011;2943;48.012;10.968;2022-10-31T11:58:36;17.43;;;7.47;;
5833;SDS011;2943;48.012;10.968;2022-10-31T12:01:03;10.07;;;4.67;;
5833;SDS011;2943;48.012;10.968;2022-10-31T12:03:33;18.13;;;6.20;;
5833;SDS011;2943;48.012;10.968;2022-10-31T12:06:09;17.23;;;5.30;;
5833;SDS011;2943;48.012;10.968;2022-10-31T12:08:42;12.70;;;4.67;;
5833;SDS011;2943;48.012;10.968;2022-10-31T12:11:13;11.23;;;4.60;;
5833;SDS011;2943;48.012;10.968;2022-10-31T12:13:57;20.13;;;4.60;;
5833;SDS011;2943;48.012;10.968;2022-10-31T12:16:33;16.80;;;4.57;;
5833;SDS011;2943;48.012;10.968;2022-10-31T12:19:09;7.70;;;3.40;;
5833;SDS011;2943;48.012;10.968;2022-10-31T12:21:47;20.03;;;4.10;;
5833;SDS011;2943;48.012;10.968;2022-10-31T12:24:26;6.13;;;3.00;;
5833;SDS011;2943;48.012;10.968;2022-10-31T12:27:08;12.93;;;3.60;;
5833;SDS011;2943;48.012;10.968;2022-10-31T12:29:47;7.10;;;3.90;;
5833;SDS011;2943;48.012;10.968;2022-10-31T12:32:41;15.97;;;4.30;;
5833;SDS011;2943;48.012;10.968;2022-10-31T12:35:23;7.10;;;3.53;;
5833;SDS011;2943;48.012;10.968;2022-10-31T12:38:01;15.27;;;4.83;;
5833;SDS011;2943;48.012;10.968;2022-10-31T12:40:45;21.93;;;6.93;;
5833;SDS011;2943;48.012;10.968;2022-10-31T12:43:29;20.37;;;9.17;;
5833;SDS011;2943;48.012;10.968;2022-10-31T12:46:06;17.37;;;6.90;;
5833;SDS011;2943;48.012;10.968;2022-10-31T12:48:50;11.70;;;3.20;;
5833;SDS011;2943;48.012;10.968;2022-10-31T12:51:28;13.53;;;5.17;;
5833;SDS011;2943;48.012;10.968;2022-10-31T12:54:08;22.90;;;5.87;;
5833;SDS011;2943;48.012;10.968;2022-10-31T12:56:47;24.53;;;7.80;;
5833;SDS011;2943;48.012;10.968;2022-10-31T12:59:24;5.13;;;3.60;;
5833;SDS011;2943;48.012;10.968;2022-10-31T13:01:58;9.77;;;4.07;;
5833;SDS011;2943;48.012;10.968;2022-10-31T13:04:33;6.50;;;3.90;;
5833;SDS011;2943;48.012;10.968;2022-10-31T13:07:08;16.13;;;3.93;;
5833;SDS011;2943;48.012;10.968;2022-10-31T13:09:42;10.50;;;4.23;;
5833;SDS011;2943;48.012;10.968;2022-10-31T13:12:15;12.80;;;4.50;;
5833;SDS011;2943;48.012;10.968;2022-10-31T13:14:46;12.73;;;3.97;;
5833;SDS011;2943;48.012;10.968;2022-10-31T13:17:18;10.73;;;4.47;;
5833;SDS011;2943;48.012;10.968;2022-10-31T13:19:50;15.30;;;3.90;;
5833;SDS011;2943;48.012;10.968;2022-10-31T13:22:21;11.07;;;4.53;;
5833;SDS011;2943;48.012;10.968;2022-10-31T13:24:54;14.63;;;4.27;;
5833;SDS011;2943;48.012;10.968;2022-10-31T13:27:26;12.00;;;4.00;;
5833;SDS011;2943;48.012;10.968;2022-10-31T13:29:58;8.63;;;4.10;;
5833;SDS011;2943;48.012;10.968;2022-10-31T13:32:30;13.80;;;4.80;;
5833;SDS011;2943;48.012;10.968;2022-10-31T13:35:07;14.40;;;3.90;;
5833;SDS011;2943;48.012;10.968;2022-10-31T13:37:46;10.13;;;3.90;;
5833;SDS011;2943;48.012;10.968;2022-10-31T13:40:22;12.03;;;3.90;;
5833;SDS011;2943;48.012;10.968;2022-10-31T13:43:01;8.43;;;3.33;;
5833;SDS011;2943;48.012;10.968;2022-10-31T13:45:35;11.67;;;3.83;;
5833;SDS011;2943;48.012;10.968;2022-10-31T13:48:17;6.77;;;3.67;;
5833;SDS011;2943;48.012;10.968;2022-10-31T13:50:58;10.03;;;4.00;;
5833;SDS011;2943;48.012;10.968;2022-10-31T13:53:35;13.13;;;3.63;;
5833;SDS011;2943;48.012;10.968;2022-10-31T13:56:15;11.57;;;3.83;;
5833;SDS011;2943;48.012;10.968;2022-10-31T13:58:57;8.70;;;3.97;;
5833;SDS011;2943;48.012;10.968;2022-10-31T14:01:27;10.87;;;4.20;;
5833;SDS011;2943;48.012;10.968;2022-10-31T14:03:57;17.70;;;4.67;;
5833;SDS011;2943;48.012;10.968;2022-10-31T14:06:36;14.77;;;4.43;;
5833;SDS011;2943;48.012;10.968;2022-10-31T14:09:19;7.93;;;4.43;;
5833;SDS011;2943;48.012;10.968;2022-10-31T14:11:51;8.43;;;3.50;;
5833;SDS011;2943;48.012;10.968;2022-10-31T14:14:18;9.37;;;4.23;;
5833;SDS011;2943;48.012;10.968;2022-10-31T14:16:52;14.13;;;4.20;;
5833;SDS011;2943;48.012;10.968;2022-10-31T14:19:21;6.10;;;3.73;;
5833;SDS011;2943;48.012;10.968;2022-10-31T14:21:49;7.07;;;3.70;;
5833;SDS011;2943;48.012;10.968;2022-10-31T14:24:30;11.43;;;4.10;;
5833;SDS011;2943;48.012;10.968;2022-10-31T14:27:02;20.10;;;4.50;;
5833;SDS011;2943;48.012;10.968;2022-10-31T14:29:33;10.67;;;4.10;;
5833;SDS011;2943;48.012;10.968;2022-10-31T14:32:05;19.00;;;4.73;;
5833;SDS011;2943;48.012;10.968;2022-10-31T14:34:41;15.00;;;4.00;;
5833;SDS011;2943;48.012;10.968;2022-10-31T14:37:19;12.20;;;4.50;;
5833;SDS011;2943;48.012;10.968;2022-10-31T14:40:19;13.33;;;4.37;;
5833;SDS011;2943;48.012;10.968;2022-10-31T14:43:14;17.07;;;4.47;;
5833;SDS011;2943;48.012;10.968;2022-10-31T14:45:53;14.17;;;3.80;;
5833;SDS011;2943;48.012;10.968;2022-10-31T14:48:29;9.10;;;3.43;;
5833;SDS011;2943;48.012;10.968;2022-10-31T14:51:12;8.77;;;3.37;;
5833;SDS011;2943;48.012;10.968;2022-10-31T14:53:44;8.40;;;4.27;;
5833;SDS011;2943;48.012;10.968;2022-10-31T14:56:14;9.53;;;3.70;;
5833;SDS011;2943;48.012;10.968;2022-10-31T14:58:49;24.37;;;4.50;;
5833;SDS011;2943;48.012;10.968;2022-10-31T15:01:18;12.60;;;4.17;;
5833;SDS011;2943;48.012;10.968;2022-10-31T15:03:48;7.70;;;3.80;;
5833;SDS011;2943;48.012;10.968;2022-10-31T15:06:17;9.93;;;3.53;;
5833;SDS011;2943;48.012;10.968;2022-10-31T15:08:47;9.37;;;3.70;;
5833;SDS011;2943;48.012;10.968;2022-10-31T15:11:16;10.27;;;3.77;;
5833;SDS011;2943;48.012;10.968;2022-10-31T15:13:46;12.17;;;3.90;;
5833;SDS011;2943;48.012;10.968;2022-10-31T15:16:15;10.37;;;3.77;;
5833;SDS011;2943;48.012;10.968;2022-10-31T15:18:49;9.77;;;4.00;;
5833;SDS011;2943;48.012;10.968;2022-10-31T15:21:21;12.07;;;3.60;;